createdAt,value
2019-02-25T00:03:31.744Z,77.94
2019-02-25T00:18:35.279Z,84.23
2019-02-25T00:33:39.591Z,80.97
2019-02-25T00:48:43.597Z,86.29
2019-02-25T01:03:48.704Z,82.70
2019-02-25T01:18:51.250Z,80.92
2019-02-25T01:33:54.384Z,69.78
2019-02-25T01:48:57.070Z,61.47
2019-02-25T02:03:59.615Z,57.96
2019-02-25T02:19:03.324Z,72.15
2019-02-25T02:34:05.928Z,77.38
2019-02-25T02:49:08.486Z,85.98
2019-02-25T03:04:11.065Z,90.20
2019-02-25T03:19:15.009Z,91.81
2019-02-25T03:34:18.220Z,82.98
2019-02-25T03:49:20.776Z,76.66
2019-02-25T04:04:25.179Z,82.35
2019-02-25T04:19:29.167Z,81.30
2019-02-25T04:34:32.505Z,76.82
2019-02-25T04:49:35.084Z,75.09
2019-02-25T05:04:38.129Z,77.14
2019-02-25T05:19:40.680Z,84.85
2019-02-25T05:34:43.220Z,88.24
2019-02-25T05:49:45.766Z,72.67
2019-02-25T06:04:49.486Z,58.82
2019-02-25T06:19:52.130Z,51.21
2019-02-25T06:34:55.441Z,50.25
2019-02-25T06:49:57.997Z,54.10
2019-02-25T07:05:04.470Z,48.10
2019-02-25T07:20:11.427Z,44.31
2019-02-25T07:35:21.498Z,46.79
2019-02-25T07:50:26.432Z,41.62
2019-02-25T08:05:49.301Z,41.10
2019-02-25T08:20:55.692Z,43.65
2019-02-25T08:51:40.206Z,39.97
2019-02-25T09:06:42.765Z,39.04
2019-02-25T09:21:46.286Z,36.73
2019-02-25T09:36:48.833Z,33.77
2019-02-25T09:51:51.376Z,36.38
2019-02-25T10:07:02.209Z,34.87
2019-02-25T10:21:59.471Z,35.45
2019-02-25T10:37:02.044Z,34.02
2019-02-25T10:52:06.574Z,34.50
2019-02-25T11:07:09.711Z,36.74
2019-02-25T11:22:14.225Z,39.75
2019-02-25T11:37:19.714Z,40.50
2019-02-25T11:52:23.466Z,37.10
2019-02-25T12:07:26.809Z,39.72
2019-02-25T12:22:29.358Z,41.48
2019-02-25T12:37:32.239Z,40.92
2019-02-25T12:52:36.129Z,43.30
2019-02-25T13:07:38.689Z,44.18
2019-02-25T13:22:42.653Z,47.76
2019-02-25T13:37:46.274Z,48.35
2019-02-25T13:52:50.085Z,48.92
2019-02-25T14:07:53.743Z,51.00
2019-02-25T14:23:00.203Z,52.05
2019-02-25T14:38:10.069Z,51.22
2019-02-25T14:53:14.388Z,54.23
2019-02-25T15:08:19.780Z,54.36
2019-02-25T15:23:25.365Z,56.80
2019-02-25T15:38:31.075Z,58.50
2019-02-25T15:53:33.685Z,58.38
2019-02-25T16:08:37.388Z,61.80
2019-02-25T16:23:42.619Z,63.37
2019-02-25T16:38:46.399Z,64.94
2019-02-25T16:53:51.835Z,64.58
2019-02-25T17:08:55.527Z,63.97
2019-02-25T17:24:00.140Z,64.92
2019-02-25T17:39:04.058Z,66.86
2019-02-25T17:54:08.050Z,71.49
2019-02-25T18:09:11.597Z,74.50
2019-02-25T18:24:15.705Z,78.91
2019-02-25T18:39:18.549Z,80.34
2019-02-25T18:54:25.016Z,82.94
2019-02-25T19:09:29.214Z,80.79
2019-02-25T19:24:33.686Z,81.62
2019-02-25T19:39:39.655Z,81.55
2019-02-25T19:54:43.357Z,80.37
2019-02-25T20:09:47.733Z,73.69
2019-02-25T20:24:52.841Z,65.76
2019-02-25T20:39:55.794Z,63.01
2019-02-25T20:54:58.375Z,62.84
2019-02-25T21:10:03.005Z,59.94
2019-02-25T21:25:07.756Z,59.93
2019-02-25T21:40:16.136Z,59.44
2019-02-25T21:55:19.110Z,60.07
2019-02-25T22:10:24.027Z,60.28
2019-02-25T22:25:27.401Z,61.39
2019-02-25T22:40:30.490Z,61.26
2019-02-25T22:55:36.830Z,60.42
2019-02-25T23:10:41.978Z,60.53
2019-02-25T23:25:46.885Z,58.76
2019-02-25T23:40:49.229Z,58.61
2019-02-25T23:55:52.674Z,59.32
